Time;durP1;ratioP1;P1;durP2;ratioP2;P2;SDS_P1;SDS_P2;PMS_P1;PMS_P2;Temp;Humidity;BMP_temperature;BMP_pressure;BME280_temperature;BME280_humidity;BME280_pressure;Samples;Min_cycle;Max_cycle;Signal;HPM_P1;HPM_P2
2022/12/17 13:07:24;;;;;;;52.30;31.83;;;6.60;99.90;;;6.59;63.39;102359.38;5052857;28;20478;-71
2022/12/17 13:09:55;;;;;;;53.58;33.60;;;6.50;99.90;;;6.68;63.74;102354.44;5052852;28;20463;-72
2022/12/17 13:12:31;;;;;;;50.28;31.42;;;6.60;99.90;;;6.43;63.66;102354.41;5053070;28;20065;-74
2022/12/17 13:15:16;;;;;;;51.72;32.25;;;6.50;99.90;;;6.37;63.77;102355.06;5052802;28;20049;-71
2022/12/17 13:17:59;;;;;;;48.97;30.33;;;6.30;99.90;;;6.20;64.55;102336.06;5053682;28;20053;-70
2022/12/17 13:20:31;;;;;;;47.08;31.70;;;6.20;99.90;;;6.41;64.71;102350.84;5072565;28;20548;-71
2022/12/17 13:23:18;;;;;;;51.92;31.63;;;6.20;99.90;;;6.30;63.86;102337.31;5056613;28;20566;-73
2022/12/17 13:25:46;;;;;;;49.58;31.52;;;6.30;99.90;;;6.64;63.63;102345.53;5054733;28;20540;-74
2022/12/17 13:28:29;;;;;;;44.95;31.40;;;6.50;99.90;;;6.54;63.44;102348.72;5056556;28;20043;-73
2022/12/17 13:31:02;;;;;;;46.53;31.42;;;6.50;99.90;;;6.65;63.38;102336.81;5072340;28;20505;-71
2022/12/17 13:33:43;;;;;;;46.22;33.55;;;6.60;99.90;;;6.54;63.85;102342.53;5056866;28;20055;-73
2022/12/17 13:36:20;;;;;;;52.08;35.60;;;6.60;99.90;;;5.90;64.90;102265.78;5056748;28;20043;-75
2022/12/17 13:38:57;;;;;;;51.50;34.95;;;6.30;99.90;;;5.67;66.75;102345.34;5056491;28;20079;-69
2022/12/17 13:41:30;;;;;;;59.73;40.90;;;5.70;99.90;;;5.18;68.40;102340.78;5056402;28;20049;-77
2022/12/17 13:44:03;;;;;;;57.67;39.53;;;5.30;99.90;;;4.75;69.96;102339.81;5056201;28;20132;-78
2022/12/17 13:46:42;;;;;;;61.77;42.03;;;4.70;99.90;;;4.76;70.87;102345.97;5056519;28;20095;-75
2022/12/17 13:49:20;;;;;;;58.97;42.07;;;4.60;99.90;;;4.68;71.65;102347.34;5056566;28;20086;-75
2022/12/17 13:52:00;;;;;;;66.43;44.37;;;4.60;99.90;;;4.51;72.08;102336.13;5056579;28;20132;-69
2022/12/17 13:54:35;;;;;;;66.87;44.07;;;4.50;99.90;;;4.52;72.99;102341.47;5056144;28;20041;-75
2022/12/17 13:57:09;;;;;;;65.00;44.33;;;4.50;99.90;;;4.62;72.70;102337.50;5055116;28;20049;-73
2022/12/17 13:59:38;;;;;;;60.23;43.23;;;4.50;99.90;;;4.67;72.50;102340.31;5056341;28;20552;-76
2022/12/17 14:02:06;;;;;;;63.57;44.37;;;4.60;99.90;;;4.74;72.25;102340.66;5055867;28;20613;-72
2022/12/17 14:04:36;;;;;;;60.27;39.50;;;4.70;99.90;;;4.63;71.63;102323.56;5055960;28;20045;-75
2022/12/17 14:07:06;;;;;;;60.72;38.80;;;4.70;99.90;;;4.78;71.68;102347.78;5055997;28;20487;-73
2022/12/17 14:09:38;;;;;;;55.30;39.57;;;4.70;99.90;;;4.98;70.78;102344.28;5056144;28;20037;-77
2022/12/17 14:12:23;;;;;;;53.93;37.23;;;4.90;99.90;;;5.30;69.97;102353.50;5056203;28;20052;-77
2022/12/17 14:14:55;;;;;;;52.70;37.63;;;5.20;99.90;;;5.18;69.02;102359.16;5056015;28;20087;-79
2022/12/17 14:17:26;;;;;;;51.00;35.95;;;5.20;99.90;;;5.27;69.22;102369.09;5055986;28;20053;-78
2022/12/17 14:19:59;;;;;;;;;;;5.20;99.90;;;5.29;69.17;102368.34;5056134;28;20486;-77
2022/12/17 14:22:35;;;;;;;53.30;37.30;;;5.20;99.90;;;5.25;69.28;102365.50;5055892;28;20020;-77
2022/12/17 14:25:11;;;;;;;56.83;40.93;;;5.20;99.90;;;4.61;69.80;102293.78;5055826;28;20110;-76
2022/12/17 14:27:41;;;;;;;64.97;43.80;;;5.10;99.90;;;4.72;70.80;102344.03;5055915;28;20140;-74
2022/12/17 14:30:23;;;;;;;55.58;39.45;;;4.90;99.90;;;4.74;71.16;102371.22;5054486;28;20083;-75
2022/12/17 14:32:52;;;;;;;61.83;42.93;;;4.80;99.90;;;4.51;71.70;102372.81;5055788;28;20069;-74
2022/12/17 14:35:27;;;;;;;61.27;42.43;;;4.60;99.90;;;4.62;72.03;102378.53;5055350;28;20548;-73
2022/12/17 14:37:55;;;;;;;63.10;42.57;;;4.60;99.90;;;4.30;72.58;102362.28;5055321;28;20041;-75
2022/12/17 14:40:26;;;;;;;61.53;44.80;;;4.50;99.90;;;4.52;72.63;102377.22;5055164;28;20087;-73
2022/12/17 14:43:00;;;;;;;64.60;43.63;;;4.50;99.90;;;4.35;72.71;102388.69;5055439;28;20136;-74
2022/12/17 14:45:29;;;;;;;64.87;45.30;;;4.40;99.90;;;4.17;73.49;102380.00;5055004;28;20402;-76
2022/12/17 14:47:59;;;;;;;64.73;45.03;;;4.20;99.90;;;4.21;74.20;102385.44;5054938;28;20103;-74
2022/12/17 14:50:32;;;;;;;61.30;45.67;;;4.10;99.90;;;4.35;73.73;102386.97;5055156;28;20139;-75
2022/12/17 14:53:05;;;;;;;63.60;45.63;;;4.30;99.90;;;4.45;73.54;102394.41;5054966;28;20509;-74
2022/12/17 14:55:37;;;;;;;64.47;44.80;;;4.40;99.90;;;4.41;73.63;102368.03;5055049;28;20402;-72
2022/12/17 14:58:17;;;;;;;62.70;44.60;;;4.50;99.90;;;4.64;72.69;102393.50;5053693;28;20056;-75
2022/12/17 15:00:50;;;;;;;63.85;45.65;;;4.60;99.90;;;4.75;72.81;102396.56;5054880;28;20041;-75
2022/12/17 15:03:23;;;;;;;62.60;43.53;;;4.70;99.90;;;4.80;71.84;102395.06;5054787;28;20132;-74
2022/12/17 15:05:58;;;;;;;61.10;45.27;;;4.70;99.90;;;4.67;72.26;102397.97;5054638;28;20497;-77
2022/12/17 15:08:27;;;;;;;63.43;44.80;;;4.60;99.90;;;4.64;72.40;102397.84;5055223;28;20470;-74
2022/12/17 15:10:57;;;;;;;60.37;43.90;;;4.60;99.90;;;4.59;72.12;102400.25;5054963;28;20039;-80
2022/12/17 15:13:25;;;;;;;61.95;45.28;;;4.60;99.90;;;4.50;72.63;102406.00;5055236;28;20041;-84
2022/12/17 15:15:54;;;;;;;63.97;45.97;;;4.50;99.90;;;4.36;72.81;102403.56;5054614;28;20052;-78
2022/12/17 15:18:25;;;;;;;;;;;4.40;99.90;;;4.05;73.64;102403.91;5055000;28;20080;-76
2022/12/17 15:20:54;;;;;;;71.57;49.40;;;4.20;99.90;;;3.80;74.49;102400.94;5054403;28;19951;-73
2022/12/17 15:23:24;;;;;;;78.07;52.80;;;3.80;99.90;;;3.44;75.77;102409.66;5054812;28;20132;-80
2022/12/17 15:25:54;;;;;;;78.60;51.77;;;3.50;99.90;;;3.21;76.89;102420.72;5054573;28;20398;-76
2022/12/17 15:28:23;;;;;;;81.20;55.70;;;3.30;99.90;;;2.91;77.68;102408.69;5054356;28;20049;-79
2022/12/17 15:30:51;;;;;;;85.90;54.60;;;3.10;99.90;;;2.77;78.58;102421.03;5054579;28;20037;-76
2022/12/17 15:33:20;;;;;;;87.70;57.33;;;2.80;99.90;;;2.85;79.64;102427.56;5054480;28;20041;-73
2022/12/17 15:35:48;;;;;;;86.20;56.17;;;2.80;99.90;;;2.69;79.61;102419.78;5054007;28;20037;-78
2022/12/17 15:38:18;;;;;;;89.33;58.13;;;2.70;99.90;;;2.61;80.18;102428.94;5069772;28;20126;-76
2022/12/17 15:40:46;;;;;;;88.50;59.40;;;2.60;99.90;;;2.44;80.56;102425.41;5053806;28;20047;-75
2022/12/17 15:43:14;;;;;;;88.07;57.90;;;2.50;99.90;;;2.34;80.39;102427.47;5054064;28;20049;-75
2022/12/17 15:45:46;;;;;;;91.93;59.63;;;2.40;99.90;;;1.55;81.33;102339.63;5054037;28;20375;-75
2022/12/17 15:48:18;;;;;;;89.77;57.40;;;2.10;99.90;;;1.93;82.37;102416.50;5053692;28;20056;-72
2022/12/17 15:50:48;;;;;;;93.17;56.77;;;2.00;99.90;;;2.07;82.63;102436.41;5054179;28;20111;-71
2022/12/17 15:53:18;;;;;;;;;;;2.10;99.90;;;1.93;82.42;102393.91;5054232;28;20055;-72
2022/12/17 15:55:46;;;;;;;95.43;58.17;;;2.10;99.90;;;2.02;82.21;102440.47;5053602;28;19920;-72
2022/12/17 15:58:15;;;;;;;92.97;57.77;;;2.10;99.90;;;1.92;82.38;102438.19;5053642;28;20041;-72
2022/12/17 16:00:43;;;;;;;103.07;59.63;;;2.00;99.90;;;1.74;82.55;102435.44;5054161;28;20041;-71
2022/12/17 16:03:12;;;;;;;101.90;59.70;;;1.80;99.90;;;1.62;82.62;102434.75;5052665;28;20447;-73
2022/12/17 16:05:41;;;;;;;96.37;57.80;;;1.60;99.90;;;1.57;83.61;102438.78;5053494;28;20048;-75
2022/12/17 16:08:09;;;;;;;99.13;59.40;;;1.60;99.90;;;1.45;83.93;102440.72;5052782;28;20044;-72
2022/12/17 16:10:39;;;;;;;98.50;59.73;;;1.50;99.90;;;1.40;84.55;102422.19;5069071;28;20052;-71
2022/12/17 16:13:08;;;;;;;107.85;60.67;;;1.40;99.90;;;1.43;84.78;102430.19;5053772;28;20048;-71
2022/12/17 16:15:36;;;;;;;113.70;60.73;;;1.40;99.90;;;1.37;85.00;102423.75;5053404;28;20495;-72
2022/12/17 16:18:04;;;;;;;107.60;59.10;;;1.40;99.90;;;1.38;84.77;102429.03;5069000;28;20422;-71
2022/12/17 16:20:33;;;;;;;106.60;61.70;;;1.50;99.90;;;1.58;84.82;102435.38;5053267;28;20048;-72
2022/12/17 16:23:01;;;;;;;103.33;59.77;;;1.50;99.90;;;1.57;84.57;102436.19;5053842;28;20123;-71
2022/12/17 16:25:30;;;;;;;104.83;61.80;;;1.60;99.90;;;1.58;84.28;102438.00;5053108;28;20041;-71
2022/12/17 16:28:00;;;;;;;103.33;58.33;;;1.60;99.90;;;1.59;84.13;102429.34;5053495;28;20052;-72
2022/12/17 16:30:28;;;;;;;101.65;59.85;;;1.60;99.90;;;1.56;83.92;102435.31;5053204;28;20076;-74
2022/12/17 16:32:58;;;;;;;100.13;57.77;;;1.60;99.90;;;1.53;83.41;102445.53;5053445;28;20045;-72
2022/12/17 16:35:28;;;;;;;101.47;57.50;;;1.50;99.90;;;1.65;83.26;102445.34;5053432;28;20049;-72
2022/12/17 16:37:56;;;;;;;104.47;58.03;;;1.60;99.90;;;1.59;82.97;102450.22;5052114;28;20041;-72
2022/12/17 16:40:24;;;;;;;99.73;55.80;;;1.50;99.90;;;1.46;82.91;102446.03;5053037;28;20044;-73
2022/12/17 16:42:53;;;;;;;100.03;58.10;;;1.50;99.90;;;1.46;82.80;102452.94;5053302;28;20080;-75
2022/12/17 16:45:22;;;;;;;99.27;54.63;;;1.50;99.90;;;1.48;82.91;102441.78;5052916;28;20053;-72
2022/12/17 16:47:51;;;;;;;105.00;59.63;;;1.40;99.90;;;1.31;82.77;102449.44;5052980;28;20656;-73
2022/12/17 16:50:19;;;;;;;105.57;58.00;;;1.30;99.90;;;1.16;83.42;102436.41;5053170;28;20059;-74
2022/12/17 16:52:47;;;;;;;107.50;58.07;;;1.10;99.90;;;1.06;83.78;102447.13;5052335;28;20047;-72
2022/12/17 16:55:16;;;;;;;106.60;56.27;;;1.10;99.90;;;0.97;84.10;102443.09;5052899;28;20048;-74
2022/12/17 16:57:47;;;;;;;111.40;59.07;;;0.90;99.90;;;0.97;84.12;102445.69;5052788;28;20178;-71
2022/12/17 17:00:17;;;;;;;108.13;57.97;;;0.90;99.90;;;0.79;84.26;102440.28;5052898;28;20041;-78
2022/12/17 17:02:46;;;;;;;111.00;58.15;;;0.80;99.90;;;0.75;85.32;102448.72;5052754;28;20045;-75
2022/12/17 17:05:20;;;;;;;121.83;63.03;;;0.70;99.90;;;0.52;85.78;102436.91;5052983;28;20045;-74
2022/12/17 17:07:49;;;;;;;126.90;62.67;;;0.60;99.90;;;0.36;86.67;102443.69;5052727;28;20399;-74
2022/12/17 17:10:17;;;;;;;127.47;64.53;;;0.30;99.90;;;0.36;87.48;102438.47;5052720;28;20072;-83
2022/12/17 17:12:45;;;;;;;130.17;66.87;;;0.30;99.90;;;0.37;87.73;102441.16;5053105;28;20131;-74
2022/12/17 17:15:14;;;;;;;138.20;67.33;;;0.30;99.90;;;0.39;87.77;102441.25;5051884;28;20044;-72
2022/12/17 17:17:42;;;;;;;142.00;70.73;;;0.40;99.90;;;0.24;88.44;102448.13;5052638;28;20507;-74
2022/12/17 17:20:24;;;;;;;141.33;67.63;;;0.20;99.90;;;0.23;88.95;102456.75;5052798;28;20453;-76
2022/12/17 17:22:56;;;;;;;140.05;66.78;;;0.20;99.90;;;0.23;89.12;102452.44;5052949;28;20052;-75
2022/12/17 17:25:24;;;;;;;142.67;66.17;;;0.20;99.90;;;0.18;89.50;102447.75;5052884;28;20041;-73
2022/12/17 17:28:11;;;;;;;144.70;68.37;;;0.20;99.90;;;0.12;89.80;102442.19;5052594;28;20045;-75
2022/12/17 17:30:39;;;;;;;152.13;70.90;;;0.10;99.90;;;0.16;89.80;102449.34;5052667;28;20147;-75
2022/12/17 17:33:07;;;;;;;147.30;69.27;;;0.10;99.90;;;0.11;90.11;102449.09;5052759;28;20075;-75
2022/12/17 17:35:37;;;;;;;151.20;71.60;;;0.00;99.90;;;-0.30;90.78;102453.34;5052619;28;20041;-79
2022/12/17 17:38:05;;;;;;;144.18;67.57;;;-0.30;99.90;;;-0.42;91.56;102450.84;5052762;28;20041;-79
2022/12/17 17:40:34;;;;;;;156.20;70.50;;;-0.40;99.90;;;-0.24;91.65;102459.84;5052466;28;20055;-78
2022/12/17 17:43:02;;;;;;;154.63;69.53;;;-0.30;99.90;;;-0.27;91.85;102458.75;5051556;28;20498;-80
2022/12/17 17:45:30;;;;;;;168.53;73.90;;;-0.30;99.90;;;-0.53;92.36;102457.06;5052822;28;20044;-76
2022/12/17 17:47:59;;;;;;;163.10;72.80;;;-0.50;99.90;;;-0.50;92.93;102456.34;5052484;28;20053;-75
2022/12/17 17:50:27;;;;;;;174.20;74.40;;;-0.50;99.90;;;-0.53;92.77;102462.25;5052332;28;20045;-72
2022/12/17 17:52:57;;;;;;;174.90;77.10;;;-0.50;99.90;;;-0.41;93.42;102456.97;5052650;28;20037;-73
2022/12/17 17:55:27;;;;;;;170.90;74.70;;;-0.50;99.90;;;-0.54;93.52;102456.97;5052707;28;20059;-73
2022/12/17 17:57:55;;;;;;;178.30;74.43;;;-0.50;99.90;;;-0.77;93.44;102450.25;5052380;28;20048;-74
2022/12/17 18:00:23;;;;;;;165.03;70.87;;;-0.70;99.90;;;-0.73;94.67;102449.66;5052836;28;20037;-78
2022/12/17 18:02:52;;;;;;;166.53;72.80;;;-0.80;99.90;;;-0.56;95.26;102462.03;5052324;28;20120;-74
2022/12/17 18:05:23;;;;;;;178.27;77.40;;;-0.60;99.90;;;-0.60;95.11;102457.44;5055778;28;20033;-73
2022/12/17 18:07:53;;;;;;;;;;;-0.60;99.90;;;-0.62;94.98;102452.97;5056742;28;20048;-72
2022/12/17 18:10:23;;;;;;;178.30;73.57;;;-0.70;99.90;;;-0.68;94.93;102442.19;5055087;28;19963;-71
2022/12/17 18:15:38;;;;;;;167.00;72.60;;;-0.80;99.90;;;-0.62;95.79;102447.78;5056326;28;20120;-77
2022/12/17 18:18:06;;;;;;;179.83;75.70;;;-0.70;99.90;;;-0.58;95.81;102452.38;5055704;28;20048;-75
2022/12/17 18:20:41;;;;;;;186.97;79.83;;;-0.60;99.90;;;-0.71;96.37;102453.25;5055948;28;20040;-75
2022/12/17 18:23:10;;;;;;;178.87;76.10;;;-0.70;99.90;;;-0.70;96.46;102457.66;5055516;28;20033;-71
2022/12/17 18:25:40;;;;;;;165.83;72.67;;;-0.80;99.90;;;-0.52;96.81;102461.44;5055813;28;20045;-73
2022/12/17 18:28:08;;;;;;;178.75;76.70;;;-0.60;99.90;;;-0.65;96.42;102468.34;5055547;28;20049;-72
2022/12/17 18:30:38;;;;;;;179.07;75.33;;;-0.70;99.90;;;-0.61;96.84;102468.66;5055734;28;20037;-74
2022/12/17 18:33:07;;;;;;;176.32;74.50;;;-0.70;99.90;;;-0.84;96.88;102422.09;5055382;28;20045;-75
2022/12/17 18:35:35;;;;;;;177.33;75.17;;;-0.60;99.90;;;-0.64;96.67;102452.84;5055655;28;20037;-74
2022/12/17 18:38:03;;;;;;;175.67;74.80;;;-0.60;99.90;;;-0.40;96.86;102464.84;5055572;28;20487;-75
2022/12/17 18:40:32;;;;;;;185.03;76.40;;;-0.50;99.90;;;-0.39;96.59;102469.28;5055429;28;20399;-73
2022/12/17 18:45:48;;;;;;;169.97;72.43;;;-0.50;99.90;;;-0.45;96.53;102476.66;5055390;28;20479;-73
2022/12/17 18:48:16;;;;;;;169.93;74.60;;;-0.50;99.90;;;-0.59;96.09;102458.34;5055173;28;20417;-73
2022/12/17 18:50:44;;;;;;;173.53;71.77;;;-0.40;99.90;;;-0.30;96.11;102487.13;5055067;28;20041;-72
2022/12/17 18:53:13;;;;;;;175.63;74.77;;;-0.30;99.90;;;-0.45;95.69;102478.34;5055013;28;20574;-72
2022/12/17 18:55:41;;;;;;;182.23;74.30;;;-0.40;99.90;;;-0.49;95.99;102492.84;5055495;28;20059;-73
2022/12/17 18:58:11;;;;;;;172.30;72.87;;;-0.50;99.90;;;-0.42;96.32;102496.72;5055125;28;20053;-74
2022/12/17 19:00:40;;;;;;;166.63;71.03;;;-0.50;99.90;;;-0.39;95.83;102487.47;5054866;28;20091;-75
2022/12/17 19:03:08;;;;;;;184.13;72.33;;;-0.50;99.90;;;-0.31;95.83;102496.63;5054801;28;20059;-75
2022/12/17 19:05:39;;;;;;;166.53;71.77;;;-0.40;99.90;;;-0.43;95.33;102489.75;5054798;28;20053;-73
2022/12/17 19:08:13;;;;;;;179.27;71.03;;;-0.40;99.90;;;-0.64;95.48;102497.00;5055240;28;20440;-71
2022/12/17 19:10:42;;;;;;;182.77;75.77;;;-0.60;99.90;;;-0.60;96.30;102486.03;5055151;28;20115;-72
2022/12/17 19:13:12;;;;;;;169.40;71.10;;;-0.60;99.90;;;-0.34;96.42;102492.94;5055206;28;20131;-72
2022/12/17 19:15:40;;;;;;;174.52;70.57;;;-0.40;99.90;;;-0.38;95.94;102498.72;5054104;28;20072;-74
2022/12/17 19:18:08;;;;;;;172.43;71.77;;;-0.40;99.90;;;-0.30;96.15;102498.44;5055087;28;20041;-74
2022/12/17 19:20:37;;;;;;;179.03;72.57;;;-0.30;99.90;;;-0.35;95.61;102505.03;5054535;28;20076;-70
2022/12/17 19:23:05;;;;;;;183.03;73.37;;;-0.30;99.90;;;-0.16;95.48;102514.94;5054442;28;20067;-72
2022/12/17 19:25:34;;;;;;;181.23;72.20;;;-0.20;99.90;;;-0.13;94.99;102512.53;5054691;28;20460;-70
2022/12/17 19:28:02;;;;;;;187.00;76.00;;;-0.10;99.90;;;-0.18;95.12;102511.34;5054655;28;20037;-74
2022/12/17 19:30:32;;;;;;;168.90;71.67;;;-0.10;99.90;;;-0.30;94.74;102511.44;5070053;28;20079;-76
2022/12/17 19:33:00;;;;;;;167.02;73.70;;;-0.30;99.90;;;-0.41;95.00;102521.94;5069910;28;20045;-74
2022/12/17 19:35:29;;;;;;;175.40;71.13;;;-0.30;99.90;;;-0.23;95.61;102518.81;5054194;28;20079;-76
2022/12/17 19:37:57;;;;;;;163.93;67.20;;;-0.30;99.90;;;-0.30;95.09;102513.13;5054193;28;20087;-74
2022/12/17 19:40:26;;;;;;;167.57;68.73;;;-0.20;99.90;;;-0.20;95.04;102511.25;5054679;28;20075;-75
2022/12/17 19:42:55;;;;;;;163.50;69.17;;;-0.20;99.90;;;-0.22;95.28;102514.53;5054026;28;20045;-73
2022/12/17 19:45:23;;;;;;;160.77;67.60;;;-0.20;99.90;;;-0.31;95.38;102517.41;5054120;28;20045;-73
2022/12/17 19:47:54;;;;;;;161.17;66.90;;;-0.30;99.90;;;-0.79;95.76;102417.22;5053521;28;20059;-72
2022/12/17 19:50:22;;;;;;;;;;;-0.30;99.90;;;-0.44;95.54;102507.03;5054933;28;20049;-74
2022/12/17 19:52:50;;;;;;;167.63;67.17;;;-0.40;99.90;;;-0.40;96.21;102515.91;5053905;28;19927;-73
2022/12/17 19:55:20;;;;;;;154.60;64.00;;;-0.40;99.90;;;-0.28;96.10;102516.72;5053835;28;20041;-77
2022/12/17 19:57:48;;;;;;;170.02;69.43;;;-0.30;99.90;;;-0.12;96.22;102522.13;5053877;28;20115;-74
2022/12/17 20:00:17;;;;;;;156.27;67.57;;;-0.20;99.90;;;-0.20;95.94;102521.66;5054005;28;20045;-74
2022/12/17 20:02:45;;;;;;;150.73;67.67;;;-0.20;99.90;;;-0.17;95.62;102510.53;5052724;28;20037;-74
2022/12/17 20:05:16;;;;;;;141.33;63.67;;;-0.20;99.90;;;-0.20;95.19;102507.75;5053639;28;20116;-71
2022/12/17 20:07:44;;;;;;;147.30;65.00;;;-0.20;99.90;;;-0.29;95.05;102514.94;5054080;28;20131;-70
2022/12/17 20:10:12;;;;;;;140.20;61.77;;;-0.20;99.90;;;-0.20;95.24;102520.72;5053846;28;20056;-69
2022/12/17 20:12:41;;;;;;;145.00;62.57;;;-0.20;99.90;;;-0.16;95.21;102523.66;5054171;28;20048;-70
2022/12/17 20:15:11;;;;;;;145.30;62.45;;;-0.10;99.90;;;-0.07;94.80;102519.03;5068852;28;20095;-70
2022/12/17 20:17:39;;;;;;;132.83;62.57;;;-0.10;99.90;;;-0.12;94.18;102498.72;5053443;28;20139;-75
2022/12/17 20:20:09;;;;;;;144.27;62.17;;;0.00;99.90;;;0.05;93.91;102529.31;5053429;28;20091;-72
2022/12/17 20:22:39;;;;;;;144.27;64.15;;;0.10;99.90;;;0.06;93.92;102528.50;5053812;28;20473;-74
2022/12/17 20:25:10;;;;;;;152.13;66.50;;;0.10;99.90;;;0.17;93.33;102527.50;5053664;28;20033;-71
2022/12/17 20:27:38;;;;;;;144.53;62.57;;;0.20;99.90;;;0.10;92.89;102529.63;5052917;28;20128;-71
2022/12/17 20:30:08;;;;;;;142.23;64.40;;;0.20;99.90;;;0.09;92.98;102536.50;5053265;28;20544;-71
2022/12/17 20:32:37;;;;;;;138.75;64.07;;;0.10;99.90;;;-0.22;92.68;102548.31;5053233;28;20051;-70
2022/12/17 20:35:07;;;;;;;135.43;63.13;;;-0.10;99.90;;;-0.22;93.16;102537.94;5053470;28;20049;-73
2022/12/17 20:37:36;;;;;;;136.75;60.97;;;-0.20;99.90;;;-0.24;93.15;102539.53;5053447;28;20060;-75
2022/12/17 20:40:08;;;;;;;136.03;61.47;;;-0.20;99.90;;;-0.11;93.19;102531.72;5053113;28;20194;-73
2022/12/17 20:42:36;;;;;;;138.00;62.67;;;-0.10;99.90;;;-0.14;93.18;102529.84;5053421;28;20504;-75
2022/12/17 20:45:06;;;;;;;157.43;67.87;;;-0.10;99.90;;;-0.24;93.28;102534.34;5052971;28;20051;-71
2022/12/17 20:47:34;;;;;;;153.80;64.03;;;-0.20;99.90;;;-0.19;93.81;102538.13;5052713;28;20064;-74
2022/12/17 20:50:03;;;;;;;142.70;64.83;;;-0.10;99.90;;;-0.14;93.41;102536.72;5052918;28;20127;-76
2022/12/17 20:52:31;;;;;;;138.10;64.00;;;-0.10;99.90;;;-0.35;92.87;102536.22;5052938;28;20044;-74
2022/12/17 20:54:59;;;;;;;155.40;67.40;;;-0.10;99.90;;;-0.22;92.88;102538.84;5051925;28;20041;-74
2022/12/17 20:57:29;;;;;;;167.53;69.00;;;-0.20;99.90;;;-1.41;93.71;102407.78;5068323;28;20053;-79
2022/12/17 20:59:58;;;;;;;163.02;70.55;;;-0.60;99.90;;;-0.75;95.03;102536.06;5052853;28;20051;-73
2022/12/17 21:02:26;;;;;;;164.40;70.63;;;-0.70;99.90;;;-0.70;95.70;102539.88;5051832;28;20067;-74
2022/12/17 21:04:55;;;;;;;163.17;70.47;;;-0.80;99.90;;;-1.01;96.40;102542.09;5068442;28;20049;-71
2022/12/17 21:07:23;;;;;;;167.90;69.27;;;-1.00;99.90;;;-1.13;97.38;102551.63;5052751;28;20047;-72
2022/12/17 21:09:51;;;;;;;156.77;66.23;;;-1.10;99.90;;;-1.17;98.15;102553.13;5051765;28;20045;-70
2022/12/17 21:12:20;;;;;;;159.90;67.70;;;-1.20;99.90;;;-1.13;98.27;102547.34;5053022;28;20128;-70
2022/12/17 21:14:50;;;;;;;153.60;65.37;;;-1.20;99.90;;;-1.08;98.44;102522.59;5053267;28;20133;-71
2022/12/17 21:17:18;;;;;;;146.77;64.00;;;-1.10;99.90;;;-0.83;98.39;102548.53;5068564;28;20055;-69
2022/12/17 21:19:47;;;;;;;155.00;65.00;;;-1.00;99.90;;;-0.75;97.66;102551.63;5052932;28;20064;-69
2022/12/17 21:22:15;;;;;;;156.83;65.33;;;-0.90;99.90;;;-1.45;97.33;102431.75;5052890;28;20049;-69
2022/12/17 21:24:43;;;;;;;157.30;66.07;;;-0.90;99.90;;;-0.93;96.89;102551.31;5052658;28;20491;-70
2022/12/17 21:27:12;;;;;;;159.83;67.90;;;-0.90;99.90;;;-1.00;97.08;102562.06;5052832;28;20453;-69
2022/12/17 21:29:42;;;;;;;153.23;66.07;;;-1.00;99.90;;;-1.00;96.75;102575.03;5053144;28;20048;-70
2022/12/17 21:32:12;;;;;;;161.47;66.80;;;-1.00;99.90;;;-1.28;97.29;102527.22;5052555;28;20045;-73
2022/12/17 21:34:40;;;;;;;163.25;67.60;;;-1.00;99.90;;;-0.96;97.34;102588.34;5053081;28;20041;-73
2022/12/17 21:37:09;;;;;;;158.40;66.40;;;-0.90;99.90;;;-0.84;97.49;102582.19;5053075;28;20047;-73
2022/12/17 21:39:38;;;;;;;161.02;67.05;;;-0.90;99.90;;;-1.35;97.54;102582.06;5054765;28;20075;-72
2022/12/17 21:44:52;;;;;;;171.93;68.40;;;-1.50;99.90;;;-1.65;99.92;102570.44;5056602;28;20147;-71
2022/12/17 21:47:22;;;;;;;172.93;67.37;;;-1.50;99.90;;;-1.57;100.00;102581.34;5056347;28;20041;-71
2022/12/17 21:49:51;;;;;;;168.30;65.95;;;-1.60;99.90;;;-1.35;100.00;102587.25;5056639;28;20057;-70
2022/12/17 21:52:19;;;;;;;167.93;67.10;;;-1.40;99.90;;;-1.29;100.00;102592.88;5056151;28;20032;-71
2022/12/17 21:54:47;;;;;;;167.50;67.90;;;-1.40;99.90;;;-1.16;100.00;102604.22;5056694;28;20075;-71
2022/12/17 21:57:16;;;;;;;164.50;68.67;;;-1.30;99.90;;;-1.12;99.81;102601.06;5056063;28;20491;-71
2022/12/17 21:59:44;;;;;;;166.20;70.83;;;-1.20;99.90;;;-1.07;99.53;102601.38;5056051;28;20597;-69
2022/12/17 22:02:12;;;;;;;154.13;66.63;;;-1.10;99.90;;;-1.06;99.00;102603.16;5056273;28;20048;-70
2022/12/17 22:04:43;;;;;;;170.93;69.97;;;-1.10;99.90;;;-1.00;98.62;102609.72;5056507;28;20475;-73
2022/12/17 22:07:11;;;;;;;164.38;69.15;;;-1.00;99.90;;;-0.97;98.44;102591.72;5055290;28;20045;-72
2022/12/17 22:09:55;;;;;;;158.13;65.47;;;-0.90;99.90;;;-0.99;97.93;102598.50;5055879;28;20245;-73
2022/12/17 22:15:30;;;;;;;173.07;69.00;;;-1.10;99.90;;;-1.06;97.50;102601.50;5055821;28;20049;-72
2022/12/17 22:18:07;;;;;;;154.90;64.07;;;-1.10;99.90;;;-1.06;97.27;102603.16;5055813;28;20469;-75
2022/12/17 22:20:36;;;;;;;151.13;65.20;;;-1.00;99.90;;;-1.09;96.79;102592.59;5071597;28;20546;-71
2022/12/17 22:23:06;;;;;;;151.10;63.63;;;-1.10;99.90;;;-1.17;96.65;102602.44;5055942;28;20072;-71
2022/12/17 22:25:37;;;;;;;165.93;67.13;;;-1.20;99.90;;;-1.72;96.90;102562.13;5055529;28;20048;-69
2022/12/17 22:28:06;;;;;;;164.80;65.87;;;-1.40;99.90;;;-1.62;97.79;102587.88;5056229;28;20068;-70
2022/12/17 22:33:20;;;;;;;163.80;67.10;;;-1.60;99.90;;;-1.57;98.64;102576.16;5055520;28;20467;-70
2022/12/17 22:36:10;;;;;;;173.07;69.00;;;-1.60;99.90;;;-1.41;98.65;102584.22;5055963;28;20052;-71
2022/12/17 22:39:00;;;;;;;175.43;65.15;;;-1.40;99.90;;;-1.39;98.42;102578.34;5055387;28;20049;-72
2022/12/17 22:44:54;;;;;;;174.57;66.80;;;-1.30;99.90;;;-1.40;97.80;102561.00;5055490;28;20118;-74
2022/12/17 22:47:29;;;;;;;171.83;63.57;;;-1.40;99.90;;;-1.25;97.35;102579.31;5055482;28;20111;-71
2022/12/17 22:49:57;;;;;;;163.40;65.43;;;-1.20;99.90;;;-1.20;96.88;102581.44;5054927;28;20053;-72
2022/12/17 22:52:27;;;;;;;152.73;63.60;;;-1.20;99.90;;;-1.18;96.46;102590.25;5054681;28;20048;-71
2022/12/17 22:54:56;;;;;;;160.23;65.75;;;-1.10;99.90;;;-1.20;96.18;102589.22;5055362;28;20076;-70
2022/12/17 22:57:25;;;;;;;156.10;64.97;;;-1.20;99.90;;;-1.63;95.82;102581.81;5054957;28;20099;-71
2022/12/17 23:00:10;;;;;;;;;;;-1.50;99.90;;;-1.79;97.07;102585.78;5055681;28;20376;-73
2022/12/17 23:02:38;;;;;;;163.83;65.17;;;-1.70;99.90;;;-1.95;97.78;102586.34;5055231;28;20361;-70
2022/12/17 23:05:07;;;;;;;163.93;63.47;;;-1.90;99.90;;;-2.07;98.54;102582.91;5055081;28;20052;-70
2022/12/17 23:07:37;;;;;;;150.37;60.93;;;-2.00;99.90;;;-1.94;98.94;102598.53;5055122;28;20049;-71
2022/12/17 23:10:07;;;;;;;150.50;63.05;;;-1.90;99.90;;;-1.97;98.94;102596.63;5054980;28;20045;-73
2022/12/17 23:12:50;;;;;;;152.18;63.92;;;-1.90;99.90;;;-2.13;99.27;102596.28;5054807;28;20053;-70
2022/12/17 23:15:21;;;;;;;160.03;63.30;;;-2.10;99.90;;;-2.13;99.64;102590.22;5070462;28;20062;-75
2022/12/17 23:17:51;;;;;;;172.67;67.07;;;-2.10;99.90;;;-2.08;100.00;102609.59;5055319;28;20394;-75
2022/12/17 23:20:20;;;;;;;157.73;63.10;;;-2.10;99.90;;;-1.91;100.00;102588.38;5055213;28;20045;-80
2022/12/17 23:22:50;;;;;;;155.53;57.90;;;-1.90;99.90;;;-1.97;100.00;102582.75;5054862;28;20073;-70
2022/12/17 23:25:19;;;;;;;171.80;66.05;;;-2.00;99.90;;;-1.97;100.00;102593.13;5054533;28;20059;-69
2022/12/17 23:27:48;;;;;;;175.80;65.33;;;-1.90;99.90;;;-1.82;100.00;102594.25;5054525;28;20041;-80
2022/12/17 23:30:17;;;;;;;175.83;67.07;;;-1.80;99.90;;;-1.64;100.00;102580.00;5054914;28;20057;-67
2022/12/17 23:32:46;;;;;;;182.02;65.75;;;-1.60;99.90;;;-1.63;100.00;102562.75;5055007;28;20047;-70
2022/12/17 23:35:15;;;;;;;187.17;69.13;;;-1.60;99.90;;;-1.65;100.00;102556.56;5054374;28;20049;-71
2022/12/17 23:37:43;;;;;;;183.67;65.13;;;-1.60;99.90;;;-2.52;100.00;102421.50;5054832;28;20061;-72
2022/12/17 23:40:15;;;;;;;194.90;66.73;;;-1.70;99.90;;;-1.70;100.00;102563.13;5054601;28;20066;-71